createdAt,value
2023-05-19T00:02:51.138Z,8.57
2023-05-19T00:05:55.972Z,7.97
2023-05-19T00:09:01.256Z,7.73
2023-05-19T00:12:05.124Z,7.80
2023-05-19T00:15:11.850Z,6.90
2023-05-19T00:18:16.751Z,7.57
2023-05-19T00:21:20.102Z,7.10
2023-05-19T00:24:23.312Z,6.87
2023-05-19T00:27:26.713Z,6.70
2023-05-19T00:30:31.763Z,7.00
2023-05-19T00:33:35.455Z,6.67
2023-05-19T00:36:38.695Z,7.30
2023-05-19T00:39:41.968Z,7.10
2023-05-19T00:42:44.914Z,6.70
2023-05-19T00:45:49.785Z,7.83
2023-05-19T00:48:53.439Z,7.40
2023-05-19T00:51:57.561Z,7.60
2023-05-19T00:55:01.376Z,7.63
2023-05-19T00:58:06.088Z,7.10
2023-05-19T01:01:12.415Z,7.10
2023-05-19T01:04:17.349Z,8.00
2023-05-19T01:07:21.445Z,7.00
2023-05-19T01:10:24.873Z,7.40
2023-05-19T01:13:30.670Z,6.50
2023-05-19T01:16:41.540Z,7.40
2023-05-19T01:19:57.530Z,8.13
2023-05-19T01:23:36.956Z,8.57
2023-05-19T01:27:24.262Z,7.10
2023-05-19T01:30:35.189Z,7.40
2023-05-19T01:33:41.106Z,7.07
2023-05-19T01:36:45.979Z,8.10
2023-05-19T01:39:50.353Z,7.57
2023-05-19T01:42:57.392Z,7.57
2023-05-19T01:46:03.790Z,7.20
2023-05-19T01:49:07.781Z,7.30
2023-05-19T01:52:11.066Z,6.83
2023-05-19T01:55:14.514Z,7.30
2023-05-19T01:58:24.043Z,7.73
2023-05-19T02:01:35.421Z,8.13
2023-05-19T02:04:45.472Z,7.67
2023-05-19T02:07:59.307Z,7.70
2023-05-19T02:11:09.339Z,7.70
2023-05-19T02:14:17.519Z,7.33
2023-05-19T02:17:24.628Z,7.20
2023-05-19T02:20:28.074Z,7.20
2023-05-19T02:23:31.331Z,7.43
2023-05-19T02:26:34.472Z,7.80
2023-05-19T02:29:37.655Z,7.53
2023-05-19T02:32:42.175Z,8.73
2023-05-19T02:35:45.380Z,7.03
2023-05-19T02:38:50.310Z,8.17
2023-05-19T02:41:53.409Z,7.57
2023-05-19T02:44:56.803Z,7.27
2023-05-19T02:48:01.527Z,8.07
2023-05-19T02:51:05.445Z,8.57
2023-05-19T02:54:08.604Z,8.73
2023-05-19T02:57:12.032Z,8.70
2023-05-19T03:00:16.233Z,8.50
2023-05-19T03:03:20.855Z,8.13
2023-05-19T03:06:24.465Z,9.30
2023-05-19T03:09:27.579Z,8.17
2023-05-19T03:12:31.775Z,8.80
2023-05-19T03:15:35.353Z,8.57
2023-05-19T03:18:40.007Z,9.00
2023-05-19T03:21:43.103Z,9.83
2023-05-19T03:24:46.284Z,11.30
2023-05-19T03:27:49.492Z,13.60
2023-05-19T03:30:52.658Z,13.70
2023-05-19T03:33:57.978Z,15.30
2023-05-19T03:37:01.060Z,14.43
2023-05-19T03:40:05.769Z,14.30
2023-05-19T03:43:09.198Z,14.17
2023-05-19T03:46:12.348Z,13.40
2023-05-19T03:49:17.032Z,14.60
2023-05-19T03:52:20.256Z,14.00
2023-05-19T03:55:23.500Z,14.60
2023-05-19T03:58:26.867Z,12.23
2023-05-19T04:01:30.101Z,11.40
2023-05-19T04:04:34.807Z,9.97
2023-05-19T04:07:37.994Z,11.07
2023-05-19T04:10:41.313Z,12.17
2023-05-19T04:13:45.254Z,11.70
2023-05-19T04:16:48.591Z,10.37
2023-05-19T04:19:53.187Z,11.30
2023-05-19T04:22:56.331Z,12.13
2023-05-19T04:26:00.614Z,11.40
2023-05-19T04:29:04.952Z,12.37
2023-05-19T04:32:08.546Z,12.20
2023-05-19T04:35:13.804Z,10.87
2023-05-19T04:38:19.072Z,15.53
2023-05-19T04:41:23.127Z,14.77
2023-05-19T04:44:26.349Z,12.73
2023-05-19T04:47:30.231Z,10.97
2023-05-19T04:50:35.530Z,11.00
2023-05-19T04:53:40.375Z,12.00
2023-05-19T04:56:43.877Z,9.80
2023-05-19T04:59:47.375Z,9.63
2023-05-19T05:02:51.039Z,9.70
2023-05-19T05:05:56.854Z,8.70
2023-05-19T05:09:00.778Z,8.67
2023-05-19T05:12:04.817Z,9.10
2023-05-19T05:15:09.319Z,7.90
2023-05-19T05:18:13.256Z,8.27
2023-05-19T05:21:18.422Z,8.87
2023-05-19T05:24:22.214Z,8.40
2023-05-19T05:27:25.392Z,9.27
2023-05-19T05:30:28.509Z,8.47
2023-05-19T05:33:31.706Z,9.40
2023-05-19T05:36:36.311Z,7.93
2023-05-19T05:39:39.471Z,8.40
2023-05-19T05:42:43.009Z,9.00
2023-05-19T05:45:46.307Z,8.37
2023-05-19T05:48:50.284Z,8.57
2023-05-19T05:52:05.480Z,9.20
2023-05-19T05:55:10.926Z,8.60
2023-05-19T05:58:14.927Z,8.00
2023-05-19T06:01:24.192Z,7.70
2023-05-19T06:04:27.377Z,7.40
2023-05-19T06:07:32.003Z,8.40
2023-05-19T06:10:35.745Z,14.00
2023-05-19T06:13:41.463Z,10.00
2023-05-19T06:16:44.650Z,8.47
2023-05-19T06:19:48.248Z,8.80
2023-05-19T06:22:53.044Z,7.77
2023-05-19T06:25:56.402Z,8.83
2023-05-19T06:28:59.587Z,8.90
2023-05-19T06:32:02.825Z,7.70
2023-05-19T06:35:06.935Z,7.57
2023-05-19T06:38:11.546Z,7.40
2023-05-19T06:41:14.910Z,7.77
2023-05-19T06:44:20.437Z,8.17
2023-05-19T06:47:24.275Z,10.03
2023-05-19T06:50:27.725Z,9.07
2023-05-19T06:53:32.404Z,11.10
2023-05-19T06:56:36.535Z,9.93
2023-05-19T06:59:40.970Z,9.53
2023-05-19T07:02:44.313Z,8.10
2023-05-19T07:05:48.137Z,8.33
2023-05-19T07:08:52.715Z,7.97
2023-05-19T07:11:56.619Z,8.40
2023-05-19T07:14:59.808Z,8.63
2023-05-19T07:18:03.061Z,8.37
2023-05-19T07:21:07.384Z,7.97
2023-05-19T07:24:11.969Z,8.87
2023-05-19T07:27:15.503Z,8.40
2023-05-19T07:30:18.675Z,8.00
2023-05-19T07:33:21.850Z,7.80
2023-05-19T07:36:25.102Z,7.70
2023-05-19T07:39:29.918Z,7.80
2023-05-19T07:42:33.116Z,7.77
2023-05-19T07:45:36.414Z,6.93
2023-05-19T07:48:39.646Z,9.63
2023-05-19T07:51:43.019Z,7.00
2023-05-19T07:54:47.704Z,7.67
2023-05-19T07:57:51.025Z,7.40
2023-05-19T08:00:54.162Z,8.17
2023-05-19T08:03:57.905Z,7.63
2023-05-19T08:07:01.138Z,7.40
2023-05-19T08:10:06.314Z,7.20
2023-05-19T08:13:09.428Z,7.37
2023-05-19T08:16:12.648Z,6.17
2023-05-19T08:19:15.996Z,6.30
2023-05-19T08:22:19.208Z,6.33
2023-05-19T08:25:23.781Z,6.27
2023-05-19T08:28:27.058Z,6.80
2023-05-19T08:31:30.532Z,6.67
2023-05-19T08:34:33.772Z,8.10
2023-05-19T08:37:38.767Z,7.40
2023-05-19T08:40:44.134Z,8.60
2023-05-19T08:43:47.376Z,8.20
2023-05-19T08:46:51.250Z,8.60
2023-05-19T08:50:07.781Z,6.67
2023-05-19T08:53:31.880Z,8.20
2023-05-19T08:56:39.546Z,7.93
2023-05-19T08:59:44.906Z,7.43
2023-05-19T09:03:00.283Z,6.87
2023-05-19T09:06:09.657Z,7.47
2023-05-19T09:09:13.129Z,7.27
2023-05-19T09:12:17.669Z,8.20
2023-05-19T09:15:20.770Z,6.60
2023-05-19T09:18:25.753Z,7.30
2023-05-19T09:21:31.621Z,7.03
2023-05-19T09:24:36.093Z,7.70
2023-05-19T09:27:40.578Z,8.70
2023-05-19T09:30:43.774Z,7.80
2023-05-19T09:33:46.892Z,7.20
2023-05-19T09:36:50.909Z,10.07
2023-05-19T09:39:54.668Z,9.10
2023-05-19T09:42:59.180Z,9.60
2023-05-19T09:46:04.963Z,8.70
2023-05-19T09:49:10.771Z,10.17
2023-05-19T09:52:17.882Z,10.10
2023-05-19T09:55:23.262Z,9.40
2023-05-19T09:58:28.288Z,9.90
2023-05-19T10:01:33.717Z,10.13
2023-05-19T10:04:37.594Z,9.30
2023-05-19T10:07:42.181Z,10.50
2023-05-19T10:10:48.127Z,9.83
2023-05-19T10:13:53.447Z,10.50
2023-05-19T10:16:58.247Z,10.13
2023-05-19T10:20:02.419Z,9.57
2023-05-19T10:23:05.579Z,9.30
2023-05-19T10:26:10.037Z,9.93
2023-05-19T10:29:18.727Z,10.60
2023-05-19T10:32:28.159Z,10.50
2023-05-19T10:36:10.968Z,9.67
2023-05-19T10:39:19.149Z,10.87
2023-05-19T10:42:33.442Z,10.93
2023-05-19T10:45:43.373Z,10.40
2023-05-19T10:48:47.510Z,9.80
2023-05-19T10:51:50.982Z,11.50
2023-05-19T10:54:54.888Z,12.07
2023-05-19T10:57:58.381Z,12.00
2023-05-19T11:01:03.327Z,11.63
2023-05-19T11:04:08.110Z,12.47
2023-05-19T11:07:11.470Z,13.67
2023-05-19T11:10:14.837Z,13.03
2023-05-19T11:13:23.159Z,13.87
2023-05-19T11:16:32.787Z,16.00
2023-05-19T11:19:37.436Z,16.57
2023-05-19T11:22:41.395Z,16.43
2023-05-19T11:25:47.162Z,16.53
2023-05-19T11:28:50.845Z,18.90
2023-05-19T11:31:56.043Z,17.30
2023-05-19T11:34:59.269Z,17.27
2023-05-19T11:38:03.272Z,18.70
2023-05-19T11:41:06.611Z,18.60
2023-05-19T11:44:12.428Z,21.30
2023-05-19T11:47:17.725Z,20.70
2023-05-19T11:50:21.347Z,21.23
2023-05-19T11:53:25.079Z,21.00
2023-05-19T11:56:28.185Z,20.40
2023-05-19T11:59:33.445Z,22.57
2023-05-19T12:02:40.161Z,20.90
2023-05-19T12:05:46.063Z,19.30
2023-05-19T12:08:52.564Z,19.03
2023-05-19T12:11:56.694Z,18.93
2023-05-19T12:14:59.852Z,18.60
2023-05-19T12:18:04.796Z,17.90
2023-05-19T12:21:08.142Z,17.53
2023-05-19T12:24:11.331Z,15.37
2023-05-19T12:27:19.633Z,16.20
2023-05-19T12:30:28.688Z,26.63
2023-05-19T12:33:35.673Z,31.17
2023-05-19T12:36:39.527Z,25.20
2023-05-19T12:39:43.945Z,22.77
2023-05-19T12:42:48.746Z,24.70
2023-05-19T12:45:52.466Z,22.93
2023-05-19T12:49:00.832Z,23.57
2023-05-19T12:52:07.092Z,23.90
2023-05-19T12:55:14.412Z,22.90
2023-05-19T12:58:17.822Z,21.57
2023-05-19T13:01:21.094Z,21.17
2023-05-19T13:04:26.364Z,20.37
2023-05-19T13:07:29.734Z,19.97
2023-05-19T13:10:33.332Z,17.93
2023-05-19T13:13:37.130Z,18.03
2023-05-19T13:16:40.340Z,16.17
2023-05-19T13:19:44.981Z,16.40
2023-05-19T13:22:48.839Z,15.97
2023-05-19T13:25:52.913Z,16.30
2023-05-19T13:28:56.022Z,15.30
2023-05-19T13:32:01.186Z,14.87
2023-05-19T13:35:06.969Z,15.27
2023-05-19T13:38:11.207Z,14.70
2023-05-19T13:41:16.003Z,14.50
2023-05-19T13:44:19.367Z,14.07
2023-05-19T13:51:49.983Z,14.37
2023-05-19T13:59:18.920Z,12.50
2023-05-19T14:02:22.181Z,9.23
2023-05-19T14:05:25.441Z,9.43
2023-05-19T14:08:30.014Z,9.63
2023-05-19T14:11:33.356Z,9.57
2023-05-19T14:14:36.642Z,10.20
2023-05-19T14:17:39.909Z,10.13
2023-05-19T14:20:43.118Z,10.37
2023-05-19T14:23:47.736Z,14.60
2023-05-19T14:26:51.233Z,11.67
2023-05-19T14:29:54.322Z,11.80
2023-05-19T14:32:58.111Z,9.77
2023-05-19T14:36:01.833Z,9.90
2023-05-19T14:39:06.587Z,11.70
2023-05-19T14:42:10.594Z,10.60
2023-05-19T14:45:14.188Z,8.70
2023-05-19T14:48:17.672Z,16.93
2023-05-19T14:51:20.988Z,10.00
2023-05-19T14:54:25.605Z,10.47
2023-05-19T14:57:28.773Z,8.13
2023-05-19T15:00:32.268Z,9.17
2023-05-19T15:03:35.932Z,9.50
2023-05-19T15:06:39.195Z,8.67
2023-05-19T15:09:43.878Z,8.17
2023-05-19T15:12:47.082Z,8.63
2023-05-19T15:15:50.424Z,8.90
2023-05-19T15:18:53.721Z,8.80
2023-05-19T15:21:56.955Z,9.40
2023-05-19T15:25:01.625Z,8.57
2023-05-19T15:28:05.190Z,9.70
2023-05-19T15:31:08.843Z,8.83
2023-05-19T15:34:12.088Z,9.27
2023-05-19T15:37:15.517Z,8.80
2023-05-19T15:40:20.648Z,9.70
2023-05-19T15:43:23.775Z,9.97
2023-05-19T15:46:27.442Z,10.43
2023-05-19T15:49:30.676Z,10.00
2023-05-19T15:52:34.081Z,9.50
2023-05-19T15:55:38.756Z,11.37
2023-05-19T15:58:42.554Z,8.53
2023-05-19T16:01:45.757Z,8.63
2023-05-19T16:04:49.083Z,9.50
2023-05-19T16:07:52.605Z,8.40
2023-05-19T16:10:57.475Z,8.30
2023-05-19T16:14:00.626Z,12.20
2023-05-19T16:17:04.020Z,9.90
2023-05-19T16:20:08.520Z,9.63
2023-05-19T16:23:11.917Z,9.53
2023-05-19T16:26:17.001Z,10.97
2023-05-19T16:29:20.117Z,9.80
2023-05-19T16:32:23.707Z,10.63
2023-05-19T16:35:27.947Z,9.93
2023-05-19T16:38:31.140Z,9.40
2023-05-19T16:41:35.717Z,10.03
2023-05-19T16:44:38.866Z,9.93
2023-05-19T16:47:41.934Z,10.17
2023-05-19T16:50:45.276Z,9.87
2023-05-19T16:53:48.759Z,9.67
2023-05-19T16:56:53.726Z,10.67
2023-05-19T16:59:56.820Z,9.50
2023-05-19T17:03:02.119Z,11.23
2023-05-19T17:06:05.321Z,13.10
2023-05-19T17:09:08.550Z,13.30
2023-05-19T17:12:13.470Z,12.20
2023-05-19T17:15:17.025Z,10.70
2023-05-19T17:18:20.136Z,10.90
2023-05-19T17:21:23.238Z,11.33
2023-05-19T17:24:26.399Z,12.00
2023-05-19T17:27:30.945Z,12.30
2023-05-19T17:30:34.705Z,12.60
2023-05-19T17:33:38.171Z,13.47
2023-05-19T17:36:41.592Z,12.83
2023-05-19T17:39:44.700Z,12.20
2023-05-19T17:42:49.184Z,12.40
2023-05-19T17:45:52.541Z,13.23
2023-05-19T17:48:55.714Z,13.93
2023-05-19T17:51:59.390Z,12.77
2023-05-19T17:55:03.120Z,12.63
2023-05-19T17:58:08.225Z,12.47
2023-05-19T18:01:11.824Z,12.57
2023-05-19T18:04:16.252Z,11.87
2023-05-19T18:07:19.554Z,11.73
2023-05-19T18:10:26.727Z,11.70
2023-05-19T18:13:31.250Z,12.23
2023-05-19T18:16:34.579Z,11.73
2023-05-19T18:19:37.762Z,10.90
2023-05-19T18:22:40.860Z,11.13
2023-05-19T18:25:50.557Z,13.37
2023-05-19T18:28:55.117Z,11.30
2023-05-19T18:31:58.304Z,10.27
2023-05-19T18:35:01.447Z,10.40
2023-05-19T18:38:04.654Z,9.20
2023-05-19T18:41:08.080Z,10.03
2023-05-19T18:44:12.757Z,10.30
2023-05-19T18:47:16.260Z,9.30
2023-05-19T18:50:19.485Z,9.27
2023-05-19T18:53:22.875Z,12.47
2023-05-19T18:56:26.461Z,14.57
2023-05-19T18:59:31.082Z,11.90
2023-05-19T19:02:34.398Z,12.50
2023-05-19T19:05:37.577Z,13.90
2023-05-19T19:08:40.753Z,14.93
2023-05-19T19:11:43.876Z,14.20
2023-05-19T19:14:48.441Z,14.90
2023-05-19T19:17:51.678Z,14.80
2023-05-19T19:20:54.975Z,13.97
2023-05-19T19:23:58.691Z,15.27
2023-05-19T19:27:01.839Z,14.83
2023-05-19T19:30:07.693Z,13.20
2023-05-19T19:33:11.252Z,11.80
2023-05-19T19:36:14.459Z,11.23
2023-05-19T19:39:17.638Z,11.07
2023-05-19T19:42:20.864Z,25.50
2023-05-19T19:45:25.354Z,15.30
2023-05-19T19:48:28.786Z,14.57
2023-05-19T19:51:32.443Z,13.20
2023-05-19T19:54:35.679Z,13.43
2023-05-19T19:57:38.798Z,12.30
2023-05-19T20:00:43.304Z,13.43
2023-05-19T20:03:46.530Z,12.47
2023-05-19T20:06:49.850Z,14.67
2023-05-19T20:09:53.384Z,11.67
2023-05-19T20:12:58.869Z,12.50
2023-05-19T20:16:03.646Z,10.50
2023-05-19T20:19:09.196Z,10.60
2023-05-19T20:22:12.656Z,11.70
2023-05-19T20:25:15.955Z,10.70
2023-05-19T20:28:19.301Z,10.70
2023-05-19T20:31:25.939Z,9.60
2023-05-19T20:34:29.109Z,10.60
2023-05-19T20:37:32.306Z,10.20
2023-05-19T20:40:35.506Z,11.37
2023-05-19T20:43:38.656Z,10.90
2023-05-19T20:46:43.169Z,10.57
2023-05-19T20:49:46.625Z,9.50
2023-05-19T20:52:49.700Z,9.40
2023-05-19T20:55:52.895Z,9.50
2023-05-19T20:58:56.293Z,11.20
2023-05-19T21:02:00.912Z,11.00
2023-05-19T21:05:04.516Z,14.70
2023-05-19T21:08:12.968Z,18.33
2023-05-19T21:11:16.825Z,16.23
2023-05-19T21:14:20.040Z,25.13
2023-05-19T21:17:24.537Z,13.80
2023-05-19T21:20:29.257Z,12.33
2023-05-19T21:23:32.405Z,12.23
2023-05-19T21:26:35.626Z,11.23
2023-05-19T21:29:38.767Z,11.27
2023-05-19T21:32:43.451Z,11.63
2023-05-19T21:35:46.900Z,10.93
2023-05-19T21:38:50.262Z,9.20
2023-05-19T21:41:53.375Z,9.93
2023-05-19T21:44:56.684Z,8.90
2023-05-19T21:48:01.296Z,9.30
2023-05-19T21:51:04.583Z,8.40
2023-05-19T21:54:07.712Z,9.03
2023-05-19T21:57:11.251Z,8.37
2023-05-19T22:00:15.298Z,8.80
2023-05-19T22:03:20.230Z,8.67
2023-05-19T22:06:23.418Z,8.40
2023-05-19T22:09:26.552Z,7.70
2023-05-19T22:12:29.694Z,8.60
2023-05-19T22:15:32.872Z,8.10
2023-05-19T22:18:37.444Z,7.53
2023-05-19T22:21:40.587Z,7.40
2023-05-19T22:24:43.863Z,7.70
2023-05-19T22:27:47.000Z,9.00
2023-05-19T22:30:50.149Z,8.63
2023-05-19T22:33:54.747Z,8.07
2023-05-19T22:36:57.988Z,8.07
2023-05-19T22:40:01.193Z,7.10
2023-05-19T22:43:04.376Z,6.90
2023-05-19T22:46:07.516Z,7.40
2023-05-19T22:49:12.089Z,7.30
2023-05-19T22:52:15.181Z,7.57
2023-05-19T22:55:18.335Z,6.13
2023-05-19T22:58:21.568Z,8.00
2023-05-19T23:01:24.818Z,7.07
2023-05-19T23:04:29.644Z,7.83
2023-05-19T23:07:32.826Z,7.30
2023-05-19T23:10:36.030Z,6.90
2023-05-19T23:13:39.134Z,6.20
2023-05-19T23:16:42.313Z,6.80
2023-05-19T23:19:46.959Z,6.00
2023-05-19T23:22:50.096Z,6.57
2023-05-19T23:25:53.247Z,6.40
2023-05-19T23:28:58.647Z,5.90
2023-05-19T23:32:01.883Z,7.00
2023-05-19T23:35:14.201Z,6.47
2023-05-19T23:38:17.540Z,5.63
2023-05-19T23:41:22.472Z,5.90
2023-05-19T23:44:26.436Z,6.23
2023-05-19T23:47:29.517Z,6.13
2023-05-19T23:50:34.190Z,6.40
2023-05-19T23:53:37.300Z,5.80
2023-05-19T23:56:40.380Z,6.43
2023-05-19T23:59:43.484Z,6.60
